sensor_id;sensor_type;location;lat;lon;timestamp;P1;durP1;ratioP1;P2;durP2;ratioP2
72575;SDS011;60613;48.658;2.328;2024-03-08T00:00:14;7.63;;;3.57;;
72575;SDS011;60613;48.658;2.328;2024-03-08T00:02:43;7.63;;;3.73;;
72575;SDS011;60613;48.658;2.328;2024-03-08T00:05:10;7.63;;;3.60;;
72575;SDS011;60613;48.658;2.328;2024-03-08T00:07:36;7.50;;;3.70;;
72575;SDS011;60613;48.658;2.328;2024-03-08T00:10:07;7.82;;;3.70;;
72575;SDS011;60613;48.658;2.328;2024-03-08T00:12:39;7.63;;;3.80;;
72575;SDS011;60613;48.658;2.328;2024-03-08T00:15:09;6.80;;;3.30;;
72575;SDS011;60613;48.658;2.328;2024-03-08T00:17:36;6.70;;;3.17;;
72575;SDS011;60613;48.658;2.328;2024-03-08T00:20:02;7.05;;;3.38;;
72575;SDS011;60613;48.658;2.328;2024-03-08T00:22:33;8.07;;;3.67;;
72575;SDS011;60613;48.658;2.328;2024-03-08T00:25:05;7.97;;;3.60;;
72575;SDS011;60613;48.658;2.328;2024-03-08T00:27:33;7.40;;;3.58;;
72575;SDS011;60613;48.658;2.328;2024-03-08T00:29:59;7.30;;;3.58;;
72575;SDS011;60613;48.658;2.328;2024-03-08T00:32:25;7.18;;;3.53;;
72575;SDS011;60613;48.658;2.328;2024-03-08T00:34:52;7.40;;;3.63;;
72575;SDS011;60613;48.658;2.328;2024-03-08T00:37:19;7.25;;;3.50;;
72575;SDS011;60613;48.658;2.328;2024-03-08T00:39:47;7.32;;;3.55;;
72575;SDS011;60613;48.658;2.328;2024-03-08T00:42:16;6.85;;;3.20;;
72575;SDS011;60613;48.658;2.328;2024-03-08T00:44:42;8.15;;;3.40;;
72575;SDS011;60613;48.658;2.328;2024-03-08T00:47:08;7.00;;;3.40;;
72575;SDS011;60613;48.658;2.328;2024-03-08T00:49:34;8.75;;;3.67;;
72575;SDS011;60613;48.658;2.328;2024-03-08T00:52:01;7.38;;;3.50;;
72575;SDS011;60613;48.658;2.328;2024-03-08T00:54:27;7.93;;;3.60;;
72575;SDS011;60613;48.658;2.328;2024-03-08T00:56:52;7.65;;;3.70;;
72575;SDS011;60613;48.658;2.328;2024-03-08T00:59:18;7.23;;;3.50;;
72575;SDS011;60613;48.658;2.328;2024-03-08T01:01:44;7.78;;;3.47;;
72575;SDS011;60613;48.658;2.328;2024-03-08T01:04:10;6.80;;;3.30;;
72575;SDS011;60613;48.658;2.328;2024-03-08T01:06:36;7.32;;;3.35;;
72575;SDS011;60613;48.658;2.328;2024-03-08T01:09:02;7.25;;;3.38;;
72575;SDS011;60613;48.658;2.328;2024-03-08T01:11:28;6.93;;;3.23;;
72575;SDS011;60613;48.658;2.328;2024-03-08T01:13:53;7.63;;;3.30;;
72575;SDS011;60613;48.658;2.328;2024-03-08T01:16:19;7.07;;;3.30;;
72575;SDS011;60613;48.658;2.328;2024-03-08T01:18:46;6.53;;;3.20;;
72575;SDS011;60613;48.658;2.328;2024-03-08T01:21:12;7.25;;;3.50;;
72575;SDS011;60613;48.658;2.328;2024-03-08T01:23:38;7.28;;;3.40;;
72575;SDS011;60613;48.658;2.328;2024-03-08T01:26:03;7.60;;;3.63;;
72575;SDS011;60613;48.658;2.328;2024-03-08T01:28:29;6.85;;;3.40;;
72575;SDS011;60613;48.658;2.328;2024-03-08T01:30:55;7.33;;;3.50;;
72575;SDS011;60613;48.658;2.328;2024-03-08T01:33:24;6.93;;;3.42;;
72575;SDS011;60613;48.658;2.328;2024-03-08T01:35:53;6.50;;;3.05;;
72575;SDS011;60613;48.658;2.328;2024-03-08T01:38:19;7.33;;;3.57;;
72575;SDS011;60613;48.658;2.328;2024-03-08T01:40:49;7.47;;;3.30;;
72575;SDS011;60613;48.658;2.328;2024-03-08T01:43:24;7.10;;;3.28;;
72575;SDS011;60613;48.658;2.328;2024-03-08T01:45:52;7.50;;;3.70;;
72575;SDS011;60613;48.658;2.328;2024-03-08T01:48:18;7.13;;;3.45;;
72575;SDS011;60613;48.658;2.328;2024-03-08T01:50:47;7.80;;;3.53;;
72575;SDS011;60613;48.658;2.328;2024-03-08T01:53:12;8.65;;;3.22;;
72575;SDS011;60613;48.658;2.328;2024-03-08T01:55:40;6.70;;;3.20;;
72575;SDS011;60613;48.658;2.328;2024-03-08T01:58:07;7.07;;;3.50;;
72575;SDS011;60613;48.658;2.328;2024-03-08T02:00:35;7.50;;;3.60;;
72575;SDS011;60613;48.658;2.328;2024-03-08T02:03:03;7.97;;;3.88;;
72575;SDS011;60613;48.658;2.328;2024-03-08T02:05:29;7.47;;;3.55;;
72575;SDS011;60613;48.658;2.328;2024-03-08T02:07:55;6.82;;;3.53;;
72575;SDS011;60613;48.658;2.328;2024-03-08T02:10:21;6.73;;;3.10;;
72575;SDS011;60613;48.658;2.328;2024-03-08T02:12:47;8.30;;;3.75;;
72575;SDS011;60613;48.658;2.328;2024-03-08T02:15:13;7.38;;;3.42;;
72575;SDS011;60613;48.658;2.328;2024-03-08T02:17:40;6.80;;;3.40;;
72575;SDS011;60613;48.658;2.328;2024-03-08T02:20:06;6.60;;;3.20;;
72575;SDS011;60613;48.658;2.328;2024-03-08T02:22:34;7.65;;;3.50;;
72575;SDS011;60613;48.658;2.328;2024-03-08T02:24:59;7.22;;;3.65;;
72575;SDS011;60613;48.658;2.328;2024-03-08T02:27:27;7.33;;;3.23;;
72575;SDS011;60613;48.658;2.328;2024-03-08T02:29:55;6.90;;;3.20;;
72575;SDS011;60613;48.658;2.328;2024-03-08T02:32:21;6.97;;;3.30;;
72575;SDS011;60613;48.658;2.328;2024-03-08T02:34:50;6.90;;;3.30;;
72575;SDS011;60613;48.658;2.328;2024-03-08T02:37:16;7.10;;;3.20;;
72575;SDS011;60613;48.658;2.328;2024-03-08T02:39:42;7.05;;;3.13;;
72575;SDS011;60613;48.658;2.328;2024-03-08T02:42:08;7.30;;;3.30;;
72575;SDS011;60613;48.658;2.328;2024-03-08T02:44:34;7.50;;;3.10;;
72575;SDS011;60613;48.658;2.328;2024-03-08T02:46:59;7.95;;;3.53;;
72575;SDS011;60613;48.658;2.328;2024-03-08T02:49:25;7.15;;;3.17;;
72575;SDS011;60613;48.658;2.328;2024-03-08T02:51:52;6.50;;;3.00;;
72575;SDS011;60613;48.658;2.328;2024-03-08T02:54:18;6.85;;;3.20;;
72575;SDS011;60613;48.658;2.328;2024-03-08T02:56:45;7.00;;;3.40;;
72575;SDS011;60613;48.658;2.328;2024-03-08T02:59:11;7.07;;;3.17;;
72575;SDS011;60613;48.658;2.328;2024-03-08T03:01:38;7.43;;;3.40;;
72575;SDS011;60613;48.658;2.328;2024-03-08T03:04:04;7.18;;;3.33;;
72575;SDS011;60613;48.658;2.328;2024-03-08T03:06:30;7.55;;;3.60;;
72575;SDS011;60613;48.658;2.328;2024-03-08T03:08:56;7.60;;;3.40;;
72575;SDS011;60613;48.658;2.328;2024-03-08T03:11:22;7.03;;;3.30;;
72575;SDS011;60613;48.658;2.328;2024-03-08T03:13:48;7.95;;;3.40;;
72575;SDS011;60613;48.658;2.328;2024-03-08T03:16:17;6.70;;;3.10;;
72575;SDS011;60613;48.658;2.328;2024-03-08T03:18:46;7.17;;;3.30;;
72575;SDS011;60613;48.658;2.328;2024-03-08T03:21:12;6.90;;;3.15;;
72575;SDS011;60613;48.658;2.328;2024-03-08T03:23:39;7.57;;;3.28;;
72575;SDS011;60613;48.658;2.328;2024-03-08T03:26:06;7.28;;;3.30;;
72575;SDS011;60613;48.658;2.328;2024-03-08T03:28:38;7.45;;;3.42;;
72575;SDS011;60613;48.658;2.328;2024-03-08T03:31:06;7.00;;;3.03;;
72575;SDS011;60613;48.658;2.328;2024-03-08T03:33:32;6.90;;;3.38;;
72575;SDS011;60613;48.658;2.328;2024-03-08T03:35:59;7.20;;;3.40;;
72575;SDS011;60613;48.658;2.328;2024-03-08T03:38:26;7.53;;;3.25;;
72575;SDS011;60613;48.658;2.328;2024-03-08T03:40:52;7.30;;;3.20;;
72575;SDS011;60613;48.658;2.328;2024-03-08T03:43:22;8.00;;;3.40;;
72575;SDS011;60613;48.658;2.328;2024-03-08T03:45:48;6.78;;;3.35;;
72575;SDS011;60613;48.658;2.328;2024-03-08T03:48:13;7.23;;;3.20;;
72575;SDS011;60613;48.658;2.328;2024-03-08T03:50:39;7.40;;;3.50;;
72575;SDS011;60613;48.658;2.328;2024-03-08T03:53:05;8.07;;;3.10;;
72575;SDS011;60613;48.658;2.328;2024-03-08T03:55:34;7.55;;;3.42;;
72575;SDS011;60613;48.658;2.328;2024-03-08T03:58:01;7.55;;;3.40;;
72575;SDS011;60613;48.658;2.328;2024-03-08T04:00:27;7.05;;;3.22;;
72575;SDS011;60613;48.658;2.328;2024-03-08T04:02:53;7.97;;;3.50;;
72575;SDS011;60613;48.658;2.328;2024-03-08T04:05:19;6.97;;;3.05;;
72575;SDS011;60613;48.658;2.328;2024-03-08T04:07:46;6.97;;;3.03;;
72575;SDS011;60613;48.658;2.328;2024-03-08T04:10:11;7.27;;;3.30;;
72575;SDS011;60613;48.658;2.328;2024-03-08T04:12:37;6.90;;;3.17;;
72575;SDS011;60613;48.658;2.328;2024-03-08T04:15:03;8.10;;;3.57;;
72575;SDS011;60613;48.658;2.328;2024-03-08T04:17:32;7.07;;;3.27;;
72575;SDS011;60613;48.658;2.328;2024-03-08T04:20:02;7.43;;;3.25;;
72575;SDS011;60613;48.658;2.328;2024-03-08T04:22:37;7.00;;;3.03;;
72575;SDS011;60613;48.658;2.328;2024-03-08T04:25:04;7.75;;;3.40;;
72575;SDS011;60613;48.658;2.328;2024-03-08T04:27:31;7.30;;;3.28;;
72575;SDS011;60613;48.658;2.328;2024-03-08T04:29:58;7.03;;;3.33;;
72575;SDS011;60613;48.658;2.328;2024-03-08T04:32:24;8.15;;;3.60;;
72575;SDS011;60613;48.658;2.328;2024-03-08T04:34:50;7.70;;;3.47;;
72575;SDS011;60613;48.658;2.328;2024-03-08T04:37:15;7.40;;;3.33;;
72575;SDS011;60613;48.658;2.328;2024-03-08T04:39:46;8.30;;;3.85;;
72575;SDS011;60613;48.658;2.328;2024-03-08T04:42:11;7.30;;;3.60;;
72575;SDS011;60613;48.658;2.328;2024-03-08T04:44:38;6.97;;;3.17;;
72575;SDS011;60613;48.658;2.328;2024-03-08T04:47:04;7.20;;;3.15;;
72575;SDS011;60613;48.658;2.328;2024-03-08T04:49:31;6.43;;;2.97;;
72575;SDS011;60613;48.658;2.328;2024-03-08T04:51:59;7.32;;;3.20;;
72575;SDS011;60613;48.658;2.328;2024-03-08T04:54:28;6.97;;;3.10;;
72575;SDS011;60613;48.658;2.328;2024-03-08T04:56:57;7.72;;;3.47;;
72575;SDS011;60613;48.658;2.328;2024-03-08T04:59:25;7.25;;;2.97;;
72575;SDS011;60613;48.658;2.328;2024-03-08T05:01:51;6.68;;;2.97;;
72575;SDS011;60613;48.658;2.328;2024-03-08T05:04:17;7.13;;;3.40;;
72575;SDS011;60613;48.658;2.328;2024-03-08T05:06:43;7.47;;;3.42;;
72575;SDS011;60613;48.658;2.328;2024-03-08T05:09:08;7.23;;;3.30;;
72575;SDS011;60613;48.658;2.328;2024-03-08T05:11:44;6.90;;;3.20;;
72575;SDS011;60613;48.658;2.328;2024-03-08T05:14:11;7.13;;;3.35;;
72575;SDS011;60613;48.658;2.328;2024-03-08T05:16:41;6.75;;;3.05;;
72575;SDS011;60613;48.658;2.328;2024-03-08T05:19:07;6.80;;;3.20;;
72575;SDS011;60613;48.658;2.328;2024-03-08T05:21:33;7.22;;;3.00;;
72575;SDS011;60613;48.658;2.328;2024-03-08T05:23:59;7.80;;;3.00;;
72575;SDS011;60613;48.658;2.328;2024-03-08T05:26:24;6.97;;;3.10;;
72575;SDS011;60613;48.658;2.328;2024-03-08T05:28:50;7.33;;;3.17;;
72575;SDS011;60613;48.658;2.328;2024-03-08T05:31:21;7.37;;;2.90;;
72575;SDS011;60613;48.658;2.328;2024-03-08T05:33:48;7.47;;;3.40;;
72575;SDS011;60613;48.658;2.328;2024-03-08T05:36:14;6.93;;;3.17;;
72575;SDS011;60613;48.658;2.328;2024-03-08T05:38:41;7.38;;;3.40;;
72575;SDS011;60613;48.658;2.328;2024-03-08T05:41:08;6.88;;;3.30;;
72575;SDS011;60613;48.658;2.328;2024-03-08T05:43:37;7.10;;;3.30;;
72575;SDS011;60613;48.658;2.328;2024-03-08T05:46:03;7.05;;;3.30;;
72575;SDS011;60613;48.658;2.328;2024-03-08T05:48:29;6.90;;;3.08;;
72575;SDS011;60613;48.658;2.328;2024-03-08T05:50:57;7.45;;;3.03;;
72575;SDS011;60613;48.658;2.328;2024-03-08T05:53:23;7.20;;;3.20;;
72575;SDS011;60613;48.658;2.328;2024-03-08T05:55:48;7.30;;;3.17;;
72575;SDS011;60613;48.658;2.328;2024-03-08T05:58:14;6.80;;;3.03;;
72575;SDS011;60613;48.658;2.328;2024-03-08T06:00:40;7.03;;;2.95;;
72575;SDS011;60613;48.658;2.328;2024-03-08T06:03:06;8.30;;;3.47;;
72575;SDS011;60613;48.658;2.328;2024-03-08T06:05:32;6.90;;;3.17;;
72575;SDS011;60613;48.658;2.328;2024-03-08T06:07:58;7.03;;;3.20;;
72575;SDS011;60613;48.658;2.328;2024-03-08T06:10:24;7.15;;;3.45;;
72575;SDS011;60613;48.658;2.328;2024-03-08T06:12:49;7.07;;;3.00;;
72575;SDS011;60613;48.658;2.328;2024-03-08T06:15:16;6.72;;;2.90;;
72575;SDS011;60613;48.658;2.328;2024-03-08T06:17:42;7.50;;;3.07;;
72575;SDS011;60613;48.658;2.328;2024-03-08T06:20:08;7.75;;;3.60;;
72575;SDS011;60613;48.658;2.328;2024-03-08T06:22:38;7.25;;;3.15;;
72575;SDS011;60613;48.658;2.328;2024-03-08T06:25:06;7.20;;;3.10;;
72575;SDS011;60613;48.658;2.328;2024-03-08T06:27:32;7.25;;;3.20;;
72575;SDS011;60613;48.658;2.328;2024-03-08T06:29:59;6.65;;;3.03;;
72575;SDS011;60613;48.658;2.328;2024-03-08T06:32:29;6.97;;;3.05;;
72575;SDS011;60613;48.658;2.328;2024-03-08T06:34:55;8.75;;;3.97;;
72575;SDS011;60613;48.658;2.328;2024-03-08T06:37:21;9.63;;;4.30;;
72575;SDS011;60613;48.658;2.328;2024-03-08T06:39:47;8.63;;;4.10;;
72575;SDS011;60613;48.658;2.328;2024-03-08T06:42:13;8.60;;;4.10;;
72575;SDS011;60613;48.658;2.328;2024-03-08T06:44:39;9.48;;;4.00;;
72575;SDS011;60613;48.658;2.328;2024-03-08T06:47:13;9.63;;;4.43;;
72575;SDS011;60613;48.658;2.328;2024-03-08T06:49:40;8.63;;;4.20;;
72575;SDS011;60613;48.658;2.328;2024-03-08T06:52:06;8.32;;;4.18;;
72575;SDS011;60613;48.658;2.328;2024-03-08T06:54:34;8.75;;;4.00;;
72575;SDS011;60613;48.658;2.328;2024-03-08T06:57:01;8.70;;;3.92;;
72575;SDS011;60613;48.658;2.328;2024-03-08T06:59:28;8.63;;;3.75;;
72575;SDS011;60613;48.658;2.328;2024-03-08T07:01:54;8.90;;;3.77;;
72575;SDS011;60613;48.658;2.328;2024-03-08T07:04:19;9.05;;;4.25;;
72575;SDS011;60613;48.658;2.328;2024-03-08T07:06:46;10.00;;;4.20;;
72575;SDS011;60613;48.658;2.328;2024-03-08T07:09:15;9.35;;;4.20;;
72575;SDS011;60613;48.658;2.328;2024-03-08T07:11:42;9.25;;;4.03;;
72575;SDS011;60613;48.658;2.328;2024-03-08T07:14:07;10.25;;;4.30;;
72575;SDS011;60613;48.658;2.328;2024-03-08T07:16:33;9.18;;;4.00;;
72575;SDS011;60613;48.658;2.328;2024-03-08T07:19:04;9.53;;;3.80;;
72575;SDS011;60613;48.658;2.328;2024-03-08T07:21:30;8.88;;;4.40;;
72575;SDS011;60613;48.658;2.328;2024-03-08T07:23:56;11.52;;;4.20;;
72575;SDS011;60613;48.658;2.328;2024-03-08T07:26:25;10.00;;;4.32;;
72575;SDS011;60613;48.658;2.328;2024-03-08T07:28:50;18.90;;;10.30;;
72575;SDS011;60613;48.658;2.328;2024-03-08T07:31:16;19.70;;;10.45;;
72575;SDS011;60613;48.658;2.328;2024-03-08T07:33:41;24.27;;;11.50;;
72575;SDS011;60613;48.658;2.328;2024-03-08T07:36:07;26.98;;;12.60;;
72575;SDS011;60613;48.658;2.328;2024-03-08T07:38:33;25.67;;;12.63;;
72575;SDS011;60613;48.658;2.328;2024-03-08T07:40:59;25.30;;;12.80;;
72575;SDS011;60613;48.658;2.328;2024-03-08T07:43:25;24.70;;;12.57;;
72575;SDS011;60613;48.658;2.328;2024-03-08T07:45:51;26.00;;;12.60;;
72575;SDS011;60613;48.658;2.328;2024-03-08T07:48:18;24.88;;;11.90;;
72575;SDS011;60613;48.658;2.328;2024-03-08T07:50:44;24.40;;;12.00;;
72575;SDS011;60613;48.658;2.328;2024-03-08T07:53:09;25.08;;;12.55;;
72575;SDS011;60613;48.658;2.328;2024-03-08T07:55:35;18.20;;;9.53;;
72575;SDS011;60613;48.658;2.328;2024-03-08T07:58:01;16.50;;;7.60;;
72575;SDS011;60613;48.658;2.328;2024-03-08T08:00:28;14.63;;;7.20;;
72575;SDS011;60613;48.658;2.328;2024-03-08T08:02:56;13.93;;;6.83;;
72575;SDS011;60613;48.658;2.328;2024-03-08T08:05:22;17.05;;;6.93;;
72575;SDS011;60613;48.658;2.328;2024-03-08T08:07:47;16.47;;;7.00;;
72575;SDS011;60613;48.658;2.328;2024-03-08T08:10:14;14.00;;;7.10;;
72575;SDS011;60613;48.658;2.328;2024-03-08T08:12:46;12.68;;;6.25;;
72575;SDS011;60613;48.658;2.328;2024-03-08T08:15:13;13.45;;;6.45;;
72575;SDS011;60613;48.658;2.328;2024-03-08T08:17:40;12.43;;;5.72;;
72575;SDS011;60613;48.658;2.328;2024-03-08T08:20:07;13.87;;;6.27;;
72575;SDS011;60613;48.658;2.328;2024-03-08T08:22:34;14.93;;;6.25;;
72575;SDS011;60613;48.658;2.328;2024-03-08T08:24:59;10.70;;;5.63;;
72575;SDS011;60613;48.658;2.328;2024-03-08T08:27:25;11.60;;;5.37;;
72575;SDS011;60613;48.658;2.328;2024-03-08T08:29:51;12.73;;;6.75;;
72575;SDS011;60613;48.658;2.328;2024-03-08T08:32:16;13.57;;;6.30;;
72575;SDS011;60613;48.658;2.328;2024-03-08T08:34:43;13.30;;;6.38;;
72575;SDS011;60613;48.658;2.328;2024-03-08T08:37:09;11.23;;;5.85;;
72575;SDS011;60613;48.658;2.328;2024-03-08T08:39:35;13.80;;;6.10;;
72575;SDS011;60613;48.658;2.328;2024-03-08T08:42:00;12.65;;;5.43;;
72575;SDS011;60613;48.658;2.328;2024-03-08T08:44:27;11.32;;;5.28;;
72575;SDS011;60613;48.658;2.328;2024-03-08T08:46:53;11.00;;;5.43;;
72575;SDS011;60613;48.658;2.328;2024-03-08T08:49:19;10.43;;;4.90;;
72575;SDS011;60613;48.658;2.328;2024-03-08T08:51:48;11.13;;;5.03;;
72575;SDS011;60613;48.658;2.328;2024-03-08T08:54:15;10.38;;;5.07;;
72575;SDS011;60613;48.658;2.328;2024-03-08T08:56:42;12.20;;;5.20;;
72575;SDS011;60613;48.658;2.328;2024-03-08T08:59:09;10.38;;;4.90;;
72575;SDS011;60613;48.658;2.328;2024-03-08T09:01:36;10.37;;;4.60;;
72575;SDS011;60613;48.658;2.328;2024-03-08T09:04:02;12.95;;;4.50;;
72575;SDS011;60613;48.658;2.328;2024-03-08T09:06:28;11.40;;;4.60;;
72575;SDS011;60613;48.658;2.328;2024-03-08T09:08:54;11.23;;;4.40;;
72575;SDS011;60613;48.658;2.328;2024-03-08T09:11:20;11.10;;;5.00;;
72575;SDS011;60613;48.658;2.328;2024-03-08T09:13:45;10.67;;;4.70;;
72575;SDS011;60613;48.658;2.328;2024-03-08T09:16:12;11.55;;;4.45;;
72575;SDS011;60613;48.658;2.328;2024-03-08T09:18:37;11.57;;;4.77;;
72575;SDS011;60613;48.658;2.328;2024-03-08T09:21:03;10.18;;;4.68;;
72575;SDS011;60613;48.658;2.328;2024-03-08T09:23:30;11.50;;;4.40;;
72575;SDS011;60613;48.658;2.328;2024-03-08T09:25:58;9.50;;;4.60;;
72575;SDS011;60613;48.658;2.328;2024-03-08T09:28:24;9.40;;;4.35;;
72575;SDS011;60613;48.658;2.328;2024-03-08T09:30:50;10.50;;;4.38;;
72575;SDS011;60613;48.658;2.328;2024-03-08T09:33:15;11.50;;;4.20;;
72575;SDS011;60613;48.658;2.328;2024-03-08T09:35:44;9.77;;;4.22;;
72575;SDS011;60613;48.658;2.328;2024-03-08T09:38:14;9.10;;;3.63;;
72575;SDS011;60613;48.658;2.328;2024-03-08T09:40:42;9.95;;;3.92;;
72575;SDS011;60613;48.658;2.328;2024-03-08T09:43:11;11.23;;;4.37;;
72575;SDS011;60613;48.658;2.328;2024-03-08T09:45:37;11.13;;;4.35;;
72575;SDS011;60613;48.658;2.328;2024-03-08T09:48:06;10.88;;;4.00;;
72575;SDS011;60613;48.658;2.328;2024-03-08T09:50:37;12.15;;;4.00;;
72575;SDS011;60613;48.658;2.328;2024-03-08T09:53:03;8.43;;;3.83;;
72575;SDS011;60613;48.658;2.328;2024-03-08T09:55:30;9.30;;;3.97;;
72575;SDS011;60613;48.658;2.328;2024-03-08T09:58:00;9.02;;;3.90;;
72575;SDS011;60613;48.658;2.328;2024-03-08T10:00:45;9.38;;;3.85;;
72575;SDS011;60613;48.658;2.328;2024-03-08T10:03:10;10.27;;;3.97;;
72575;SDS011;60613;48.658;2.328;2024-03-08T10:05:39;10.18;;;3.65;;
72575;SDS011;60613;48.658;2.328;2024-03-08T10:08:06;9.20;;;3.90;;
72575;SDS011;60613;48.658;2.328;2024-03-08T10:10:33;8.63;;;3.63;;
72575;SDS011;60613;48.658;2.328;2024-03-08T10:12:59;8.83;;;3.80;;
72575;SDS011;60613;48.658;2.328;2024-03-08T10:15:28;7.85;;;3.60;;
72575;SDS011;60613;48.658;2.328;2024-03-08T10:17:55;8.93;;;4.07;;
72575;SDS011;60613;48.658;2.328;2024-03-08T10:20:21;8.07;;;3.70;;
72575;SDS011;60613;48.658;2.328;2024-03-08T10:22:48;8.80;;;3.65;;
72575;SDS011;60613;48.658;2.328;2024-03-08T10:25:14;8.83;;;3.30;;
72575;SDS011;60613;48.658;2.328;2024-03-08T10:27:40;7.88;;;3.55;;
72575;SDS011;60613;48.658;2.328;2024-03-08T10:30:08;9.25;;;3.88;;
72575;SDS011;60613;48.658;2.328;2024-03-08T10:32:38;8.87;;;3.37;;
72575;SDS011;60613;48.658;2.328;2024-03-08T10:35:07;9.38;;;4.07;;
72575;SDS011;60613;48.658;2.328;2024-03-08T10:37:40;7.85;;;3.58;;
72575;SDS011;60613;48.658;2.328;2024-03-08T10:40:13;7.40;;;3.30;;
72575;SDS011;60613;48.658;2.328;2024-03-08T10:50:40;7.28;;;3.15;;
72575;SDS011;60613;48.658;2.328;2024-03-08T10:53:07;7.95;;;3.30;;
72575;SDS011;60613;48.658;2.328;2024-03-08T10:55:36;8.05;;;3.20;;
72575;SDS011;60613;48.658;2.328;2024-03-08T10:58:05;7.60;;;3.40;;
72575;SDS011;60613;48.658;2.328;2024-03-08T11:00:33;9.27;;;2.90;;
72575;SDS011;60613;48.658;2.328;2024-03-08T11:02:59;7.03;;;2.70;;
72575;SDS011;60613;48.658;2.328;2024-03-08T11:05:40;6.60;;;2.67;;
72575;SDS011;60613;48.658;2.328;2024-03-08T11:10:48;6.23;;;2.63;;
72575;SDS011;60613;48.658;2.328;2024-03-08T11:13:32;7.10;;;2.70;;
72575;SDS011;60613;48.658;2.328;2024-03-08T11:15:58;7.45;;;2.72;;
72575;SDS011;60613;48.658;2.328;2024-03-08T11:18:26;6.80;;;2.60;;
72575;SDS011;60613;48.658;2.328;2024-03-08T11:20:54;7.15;;;2.65;;
72575;SDS011;60613;48.658;2.328;2024-03-08T11:23:22;7.10;;;2.53;;
72575;SDS011;60613;48.658;2.328;2024-03-08T11:25:48;7.85;;;3.08;;
72575;SDS011;60613;48.658;2.328;2024-03-08T11:28:21;7.38;;;3.00;;
72575;SDS011;60613;48.658;2.328;2024-03-08T11:33:30;7.10;;;2.83;;
72575;SDS011;60613;48.658;2.328;2024-03-08T11:36:03;8.57;;;2.93;;
72575;SDS011;60613;48.658;2.328;2024-03-08T11:38:45;8.13;;;2.80;;
72575;SDS011;60613;48.658;2.328;2024-03-08T11:41:18;6.82;;;2.50;;
72575;SDS011;60613;48.658;2.328;2024-03-08T11:43:48;6.15;;;2.60;;
72575;SDS011;60613;48.658;2.328;2024-03-08T11:46:15;7.20;;;2.78;;
72575;SDS011;60613;48.658;2.328;2024-03-08T11:48:42;9.10;;;2.57;;
72575;SDS011;60613;48.658;2.328;2024-03-08T11:51:09;7.40;;;2.38;;
72575;SDS011;60613;48.658;2.328;2024-03-08T11:53:37;6.70;;;2.22;;
72575;SDS011;60613;48.658;2.328;2024-03-08T11:56:13;7.85;;;2.25;;
72575;SDS011;60613;48.658;2.328;2024-03-08T11:58:39;6.25;;;2.40;;
72575;SDS011;60613;48.658;2.328;2024-03-08T12:01:06;6.43;;;2.37;;
72575;SDS011;60613;48.658;2.328;2024-03-08T12:03:39;6.30;;;2.38;;
72575;SDS011;60613;48.658;2.328;2024-03-08T12:06:07;7.05;;;2.63;;
72575;SDS011;60613;48.658;2.328;2024-03-08T12:08:34;5.65;;;2.30;;
72575;SDS011;60613;48.658;2.328;2024-03-08T12:11:02;6.82;;;2.40;;
72575;SDS011;60613;48.658;2.328;2024-03-08T12:13:30;6.60;;;2.23;;
72575;SDS011;60613;48.658;2.328;2024-03-08T12:15:58;6.78;;;2.60;;
72575;SDS011;60613;48.658;2.328;2024-03-08T12:18:25;6.43;;;2.50;;
72575;SDS011;60613;48.658;2.328;2024-03-08T12:21:14;6.53;;;2.53;;
72575;SDS011;60613;48.658;2.328;2024-03-08T12:23:42;6.85;;;2.30;;
72575;SDS011;60613;48.658;2.328;2024-03-08T12:26:12;6.50;;;2.30;;
72575;SDS011;60613;48.658;2.328;2024-03-08T12:28:39;5.60;;;2.00;;
72575;SDS011;60613;48.658;2.328;2024-03-08T12:31:07;6.57;;;2.35;;
72575;SDS011;60613;48.658;2.328;2024-03-08T12:33:47;6.45;;;2.28;;
72575;SDS011;60613;48.658;2.328;2024-03-08T12:36:14;6.20;;;2.17;;
72575;SDS011;60613;48.658;2.328;2024-03-08T12:38:43;5.50;;;1.83;;
72575;SDS011;60613;48.658;2.328;2024-03-08T12:41:12;6.40;;;2.13;;
72575;SDS011;60613;48.658;2.328;2024-03-08T12:43:45;7.35;;;2.38;;
72575;SDS011;60613;48.658;2.328;2024-03-08T12:46:15;6.25;;;2.40;;
72575;SDS011;60613;48.658;2.328;2024-03-08T12:48:40;5.85;;;2.50;;
72575;SDS011;60613;48.658;2.328;2024-03-08T12:51:06;6.40;;;2.30;;
72575;SDS011;60613;48.658;2.328;2024-03-08T12:53:32;6.18;;;2.00;;
72575;SDS011;60613;48.658;2.328;2024-03-08T12:55:58;5.30;;;2.00;;
72575;SDS011;60613;48.658;2.328;2024-03-08T12:58:24;6.77;;;2.10;;
72575;SDS011;60613;48.658;2.328;2024-03-08T13:00:51;6.15;;;2.13;;
72575;SDS011;60613;48.658;2.328;2024-03-08T13:03:16;6.40;;;2.27;;
72575;SDS011;60613;48.658;2.328;2024-03-08T13:05:42;5.80;;;2.10;;
72575;SDS011;60613;48.658;2.328;2024-03-08T13:08:08;5.00;;;1.90;;
72575;SDS011;60613;48.658;2.328;2024-03-08T13:10:41;5.38;;;1.92;;
72575;SDS011;60613;48.658;2.328;2024-03-08T13:13:08;5.38;;;1.80;;
72575;SDS011;60613;48.658;2.328;2024-03-08T13:15:35;5.43;;;1.85;;
72575;SDS011;60613;48.658;2.328;2024-03-08T13:18:01;4.90;;;2.00;;
72575;SDS011;60613;48.658;2.328;2024-03-08T13:20:26;5.90;;;2.00;;
72575;SDS011;60613;48.658;2.328;2024-03-08T13:22:53;6.22;;;1.90;;
72575;SDS011;60613;48.658;2.328;2024-03-08T13:25:19;5.23;;;1.97;;
72575;SDS011;60613;48.658;2.328;2024-03-08T13:27:45;6.25;;;1.90;;
72575;SDS011;60613;48.658;2.328;2024-03-08T13:30:11;4.90;;;2.10;;
72575;SDS011;60613;48.658;2.328;2024-03-08T13:32:42;5.32;;;2.00;;
72575;SDS011;60613;48.658;2.328;2024-03-08T13:35:08;5.53;;;2.00;;
72575;SDS011;60613;48.658;2.328;2024-03-08T13:37:41;5.50;;;2.00;;
72575;SDS011;60613;48.658;2.328;2024-03-08T13:40:07;5.88;;;2.00;;
72575;SDS011;60613;48.658;2.328;2024-03-08T13:42:39;5.63;;;1.92;;
72575;SDS011;60613;48.658;2.328;2024-03-08T13:45:07;4.65;;;1.80;;
72575;SDS011;60613;48.658;2.328;2024-03-08T13:47:37;6.43;;;2.00;;
72575;SDS011;60613;48.658;2.328;2024-03-08T13:50:05;6.40;;;2.10;;
72575;SDS011;60613;48.658;2.328;2024-03-08T13:52:32;5.65;;;1.92;;
72575;SDS011;60613;48.658;2.328;2024-03-08T13:54:59;7.07;;;2.10;;
72575;SDS011;60613;48.658;2.328;2024-03-08T13:57:25;5.65;;;2.00;;
72575;SDS011;60613;48.658;2.328;2024-03-08T13:59:52;4.78;;;1.80;;
72575;SDS011;60613;48.658;2.328;2024-03-08T14:02:18;5.83;;;1.97;;
72575;SDS011;60613;48.658;2.328;2024-03-08T14:04:43;5.13;;;1.80;;
72575;SDS011;60613;48.658;2.328;2024-03-08T14:07:09;4.87;;;1.77;;
72575;SDS011;60613;48.658;2.328;2024-03-08T14:09:36;5.40;;;1.90;;
72575;SDS011;60613;48.658;2.328;2024-03-08T14:12:08;5.00;;;1.90;;
72575;SDS011;60613;48.658;2.328;2024-03-08T14:14:34;6.03;;;1.88;;
72575;SDS011;60613;48.658;2.328;2024-03-08T14:17:02;4.63;;;1.80;;
72575;SDS011;60613;48.658;2.328;2024-03-08T14:19:29;6.93;;;1.88;;
72575;SDS011;60613;48.658;2.328;2024-03-08T14:21:59;5.63;;;1.85;;
72575;SDS011;60613;48.658;2.328;2024-03-08T14:24:25;4.97;;;1.65;;
72575;SDS011;60613;48.658;2.328;2024-03-08T14:26:50;4.73;;;1.53;;
72575;SDS011;60613;48.658;2.328;2024-03-08T14:29:16;8.40;;;1.80;;
72575;SDS011;60613;48.658;2.328;2024-03-08T14:31:43;5.30;;;1.70;;
72575;SDS011;60613;48.658;2.328;2024-03-08T14:34:10;5.50;;;1.60;;
72575;SDS011;60613;48.658;2.328;2024-03-08T14:36:35;4.60;;;1.60;;
72575;SDS011;60613;48.658;2.328;2024-03-08T14:39:02;4.85;;;1.50;;
72575;SDS011;60613;48.658;2.328;2024-03-08T14:41:28;4.78;;;1.67;;
72575;SDS011;60613;48.658;2.328;2024-03-08T14:43:54;4.07;;;1.50;;
72575;SDS011;60613;48.658;2.328;2024-03-08T14:46:22;4.57;;;1.63;;
72575;SDS011;60613;48.658;2.328;2024-03-08T14:48:48;5.38;;;1.70;;
72575;SDS011;60613;48.658;2.328;2024-03-08T14:51:16;4.78;;;1.45;;
72575;SDS011;60613;48.658;2.328;2024-03-08T14:53:44;5.30;;;1.63;;
72575;SDS011;60613;48.658;2.328;2024-03-08T14:56:10;4.83;;;1.40;;
72575;SDS011;60613;48.658;2.328;2024-03-08T14:58:45;4.97;;;1.70;;